Idria, California
Current Conditions -  °F | °C
As of 11:56 PM on Tuesday 25 Nov 2014 (Local Time) from KNLC Reporting Station
Clear Clear  
Wind Chill: 38°   Ceiling: Unl
Heat Index: 42°   Visibility: 8mi
Dew Point: 42°   Wind: 6mph
Humidity: 100%   Direction: 260°W
Pressure: 30.38"   Gusts: NA
Location:  36.42°N, 120.67°W
Report Text: KNLC 260756Z 26005KT 8SM CLR 06/06 A3038 RMK AO2 SLP289 RH/100 T00560056 401890006 $
Loading
Personal Weather Stations






























Interactive Weather Map New forecast layout! Learn more

10-Day Weather Forecast

Advertisements
Track Severe Weather on mobile